sensor_id;sensor_type;location;lat;lon;timestamp;P1;durP1;ratioP1;P2;durP2;ratioP2
7160;SDS011;3622;53.576;9.978;2023-06-10T00:00:40;11.13;;;4.30;;
7160;SDS011;3622;53.576;9.978;2023-06-10T00:03:07;6.50;;;4.20;;
7160;SDS011;3622;53.576;9.978;2023-06-10T00:05:33;9.57;;;4.67;;
7160;SDS011;3622;53.576;9.978;2023-06-10T00:08:01;6.80;;;4.60;;
7160;SDS011;3622;53.576;9.978;2023-06-10T00:10:32;7.40;;;5.23;;
7160;SDS011;3622;53.576;9.978;2023-06-10T00:12:58;7.63;;;5.13;;
7160;SDS011;3622;53.576;9.978;2023-06-10T00:15:24;8.07;;;5.53;;
7160;SDS011;3622;53.576;9.978;2023-06-10T00:17:50;7.73;;;4.37;;
7160;SDS011;3622;53.576;9.978;2023-06-10T00:20:17;5.30;;;4.10;;
7160;SDS011;3622;53.576;9.978;2023-06-10T00:22:48;10.97;;;5.00;;
7160;SDS011;3622;53.576;9.978;2023-06-10T00:25:14;7.13;;;4.50;;
7160;SDS011;3622;53.576;9.978;2023-06-10T00:27:40;5.50;;;4.47;;
7160;SDS011;3622;53.576;9.978;2023-06-10T00:30:06;8.10;;;4.97;;
7160;SDS011;3622;53.576;9.978;2023-06-10T00:32:33;8.60;;;5.20;;
7160;SDS011;3622;53.576;9.978;2023-06-10T00:34:59;12.70;;;4.40;;
7160;SDS011;3622;53.576;9.978;2023-06-10T00:37:25;6.50;;;3.73;;
7160;SDS011;3622;53.576;9.978;2023-06-10T00:39:51;7.40;;;4.03;;
7160;SDS011;3622;53.576;9.978;2023-06-10T00:42:17;7.60;;;3.70;;
7160;SDS011;3622;53.576;9.978;2023-06-10T00:44:44;10.17;;;4.67;;
7160;SDS011;3622;53.576;9.978;2023-06-10T00:47:10;5.73;;;4.07;;
7160;SDS011;3622;53.576;9.978;2023-06-10T00:49:36;9.27;;;3.93;;
7160;SDS011;3622;53.576;9.978;2023-06-10T00:52:02;7.63;;;3.77;;
7160;SDS011;3622;53.576;9.978;2023-06-10T00:54:29;7.60;;;3.80;;
7160;SDS011;3622;53.576;9.978;2023-06-10T00:56:55;6.43;;;3.80;;
7160;SDS011;3622;53.576;9.978;2023-06-10T00:59:22;6.27;;;3.33;;
7160;SDS011;3622;53.576;9.978;2023-06-10T01:01:50;6.23;;;3.47;;
7160;SDS011;3622;53.576;9.978;2023-06-10T01:04:17;11.37;;;5.00;;
7160;SDS011;3622;53.576;9.978;2023-06-10T01:11:45;5.83;;;3.73;;
7160;SDS011;3622;53.576;9.978;2023-06-10T01:14:11;5.03;;;3.43;;
7160;SDS011;3622;53.576;9.978;2023-06-10T01:16:39;5.40;;;3.60;;
7160;SDS011;3622;53.576;9.978;2023-06-10T01:19:06;4.90;;;3.70;;
7160;SDS011;3622;53.576;9.978;2023-06-10T01:21:32;8.40;;;4.70;;
7160;SDS011;3622;53.576;9.978;2023-06-10T01:23:58;4.70;;;3.03;;
7160;SDS011;3622;53.576;9.978;2023-06-10T01:26:25;8.87;;;4.00;;
7160;SDS011;3622;53.576;9.978;2023-06-10T01:29:07;9.70;;;3.90;;
7160;SDS011;3622;53.576;9.978;2023-06-10T01:31:38;9.13;;;4.00;;
7160;SDS011;3622;53.576;9.978;2023-06-10T01:34:08;3.60;;;3.30;;
7160;SDS011;3622;53.576;9.978;2023-06-10T01:36:34;4.20;;;3.10;;
7160;SDS011;3622;53.576;9.978;2023-06-10T01:39:01;8.17;;;3.53;;
7160;SDS011;3622;53.576;9.978;2023-06-10T01:41:27;6.30;;;3.23;;
7160;SDS011;3622;53.576;9.978;2023-06-10T01:43:54;4.77;;;3.37;;
7160;SDS011;3622;53.576;9.978;2023-06-10T01:46:20;8.13;;;3.20;;
7160;SDS011;3622;53.576;9.978;2023-06-10T01:48:47;5.43;;;3.47;;
7160;SDS011;3622;53.576;9.978;2023-06-10T01:51:13;4.50;;;3.10;;
7160;SDS011;3622;53.576;9.978;2023-06-10T01:53:38;6.73;;;3.73;;
7160;SDS011;3622;53.576;9.978;2023-06-10T01:56:04;5.97;;;2.60;;
7160;SDS011;3622;53.576;9.978;2023-06-10T01:58:30;5.03;;;3.10;;
7160;SDS011;3622;53.576;9.978;2023-06-10T02:00:56;10.00;;;3.17;;
7160;SDS011;3622;53.576;9.978;2023-06-10T02:03:22;9.57;;;3.80;;
7160;SDS011;3622;53.576;9.978;2023-06-10T02:05:48;7.20;;;3.20;;
7160;SDS011;3622;53.576;9.978;2023-06-10T02:08:14;4.57;;;3.13;;
7160;SDS011;3622;53.576;9.978;2023-06-10T02:10:40;4.17;;;2.90;;
7160;SDS011;3622;53.576;9.978;2023-06-10T02:13:06;5.63;;;3.47;;
7160;SDS011;3622;53.576;9.978;2023-06-10T02:15:32;8.83;;;3.30;;
7160;SDS011;3622;53.576;9.978;2023-06-10T02:17:59;5.87;;;3.30;;
7160;SDS011;3622;53.576;9.978;2023-06-10T02:20:25;3.83;;;2.77;;
7160;SDS011;3622;53.576;9.978;2023-06-10T02:22:51;6.07;;;2.60;;
7160;SDS011;3622;53.576;9.978;2023-06-10T02:25:17;7.10;;;3.00;;
7160;SDS011;3622;53.576;9.978;2023-06-10T02:27:43;5.00;;;2.50;;
7160;SDS011;3622;53.576;9.978;2023-06-10T02:30:09;3.53;;;2.90;;
7160;SDS011;3622;53.576;9.978;2023-06-10T02:32:36;3.03;;;2.80;;
7160;SDS011;3622;53.576;9.978;2023-06-10T02:35:02;8.83;;;2.80;;
7160;SDS011;3622;53.576;9.978;2023-06-10T02:37:28;6.30;;;2.20;;
7160;SDS011;3622;53.576;9.978;2023-06-10T02:39:54;3.70;;;2.73;;
7160;SDS011;3622;53.576;9.978;2023-06-10T02:42:20;12.47;;;2.60;;
7160;SDS011;3622;53.576;9.978;2023-06-10T02:44:46;4.50;;;2.43;;
7160;SDS011;3622;53.576;9.978;2023-06-10T02:47:11;5.40;;;3.23;;
7160;SDS011;3622;53.576;9.978;2023-06-10T02:49:37;4.30;;;2.63;;
7160;SDS011;3622;53.576;9.978;2023-06-10T02:52:03;5.53;;;2.50;;
7160;SDS011;3622;53.576;9.978;2023-06-10T02:54:32;4.40;;;2.90;;
7160;SDS011;3622;53.576;9.978;2023-06-10T02:56:57;6.33;;;2.77;;
7160;SDS011;3622;53.576;9.978;2023-06-10T02:59:23;4.37;;;2.60;;
7160;SDS011;3622;53.576;9.978;2023-06-10T03:01:51;6.10;;;3.10;;
7160;SDS011;3622;53.576;9.978;2023-06-10T03:04:17;4.97;;;3.50;;
7160;SDS011;3622;53.576;9.978;2023-06-10T03:06:43;4.40;;;3.87;;
7160;SDS011;3622;53.576;9.978;2023-06-10T03:09:10;8.10;;;3.20;;
7160;SDS011;3622;53.576;9.978;2023-06-10T03:11:36;5.50;;;2.80;;
7160;SDS011;3622;53.576;9.978;2023-06-10T03:14:02;5.77;;;3.00;;
7160;SDS011;3622;53.576;9.978;2023-06-10T03:16:28;6.37;;;3.20;;
7160;SDS011;3622;53.576;9.978;2023-06-10T03:18:56;2.93;;;2.20;;
7160;SDS011;3622;53.576;9.978;2023-06-10T03:21:22;3.43;;;2.30;;
7160;SDS011;3622;53.576;9.978;2023-06-10T03:23:48;6.47;;;2.20;;
7160;SDS011;3622;53.576;9.978;2023-06-10T03:26:14;5.37;;;2.30;;
7160;SDS011;3622;53.576;9.978;2023-06-10T03:28:40;3.60;;;2.47;;
7160;SDS011;3622;53.576;9.978;2023-06-10T03:31:06;6.13;;;2.77;;
7160;SDS011;3622;53.576;9.978;2023-06-10T03:33:32;2.40;;;2.20;;
7160;SDS011;3622;53.576;9.978;2023-06-10T03:35:58;4.73;;;2.77;;
7160;SDS011;3622;53.576;9.978;2023-06-10T03:38:24;3.40;;;3.10;;
7160;SDS011;3622;53.576;9.978;2023-06-10T03:40:50;2.67;;;2.33;;
7160;SDS011;3622;53.576;9.978;2023-06-10T03:43:16;3.00;;;2.00;;
7160;SDS011;3622;53.576;9.978;2023-06-10T03:45:42;3.73;;;2.40;;
7160;SDS011;3622;53.576;9.978;2023-06-10T03:48:08;5.47;;;2.67;;
7160;SDS011;3622;53.576;9.978;2023-06-10T03:50:36;6.07;;;2.53;;
7160;SDS011;3622;53.576;9.978;2023-06-10T03:53:02;8.73;;;2.33;;
7160;SDS011;3622;53.576;9.978;2023-06-10T03:55:28;8.20;;;2.80;;
7160;SDS011;3622;53.576;9.978;2023-06-10T03:57:54;5.13;;;2.90;;
7160;SDS011;3622;53.576;9.978;2023-06-10T04:00:20;3.70;;;2.50;;
7160;SDS011;3622;53.576;9.978;2023-06-10T04:02:47;4.30;;;2.40;;
7160;SDS011;3622;53.576;9.978;2023-06-10T04:05:17;5.47;;;2.73;;
7160;SDS011;3622;53.576;9.978;2023-06-10T04:07:44;9.50;;;3.60;;
7160;SDS011;3622;53.576;9.978;2023-06-10T04:10:10;6.37;;;2.73;;
7160;SDS011;3622;53.576;9.978;2023-06-10T04:12:37;13.47;;;3.50;;
7160;SDS011;3622;53.576;9.978;2023-06-10T04:15:03;12.47;;;2.50;;
7160;SDS011;3622;53.576;9.978;2023-06-10T04:17:30;14.27;;;2.80;;
7160;SDS011;3622;53.576;9.978;2023-06-10T04:19:56;16.03;;;4.30;;
7160;SDS011;3622;53.576;9.978;2023-06-10T04:22:23;29.17;;;9.23;;
7160;SDS011;3622;53.576;9.978;2023-06-10T04:24:49;32.20;;;9.90;;
7160;SDS011;3622;53.576;9.978;2023-06-10T04:27:14;29.77;;;11.43;;
7160;SDS011;3622;53.576;9.978;2023-06-10T04:29:40;51.83;;;22.40;;
7160;SDS011;3622;53.576;9.978;2023-06-10T04:32:07;103.97;;;27.03;;
7160;SDS011;3622;53.576;9.978;2023-06-10T04:34:33;85.90;;;26.67;;
7160;SDS011;3622;53.576;9.978;2023-06-10T04:36:59;126.80;;;31.07;;
7160;SDS011;3622;53.576;9.978;2023-06-10T04:39:25;126.43;;;33.80;;
7160;SDS011;3622;53.576;9.978;2023-06-10T04:41:51;167.20;;;52.37;;
7160;SDS011;3622;53.576;9.978;2023-06-10T04:44:17;176.10;;;52.70;;
7160;SDS011;3622;53.576;9.978;2023-06-10T04:46:43;205.47;;;61.43;;
7160;SDS011;3622;53.576;9.978;2023-06-10T04:49:10;221.50;;;65.97;;
7160;SDS011;3622;53.576;9.978;2023-06-10T04:51:39;223.00;;;77.30;;
7160;SDS011;3622;53.576;9.978;2023-06-10T04:54:05;230.80;;;70.50;;
7160;SDS011;3622;53.576;9.978;2023-06-10T04:56:31;227.27;;;69.00;;
7160;SDS011;3622;53.576;9.978;2023-06-10T04:58:57;238.57;;;70.47;;
7160;SDS011;3622;53.576;9.978;2023-06-10T05:01:23;244.07;;;72.23;;
7160;SDS011;3622;53.576;9.978;2023-06-10T05:03:49;234.00;;;71.37;;
7160;SDS011;3622;53.576;9.978;2023-06-10T05:06:15;226.67;;;68.67;;
7160;SDS011;3622;53.576;9.978;2023-06-10T05:08:41;238.13;;;70.23;;
7160;SDS011;3622;53.576;9.978;2023-06-10T05:11:07;258.07;;;74.30;;
7160;SDS011;3622;53.576;9.978;2023-06-10T05:13:33;229.93;;;65.37;;
7160;SDS011;3622;53.576;9.978;2023-06-10T05:15:59;260.27;;;74.37;;
7160;SDS011;3622;53.576;9.978;2023-06-10T05:18:25;243.40;;;76.33;;
7160;SDS011;3622;53.576;9.978;2023-06-10T05:20:51;235.33;;;68.40;;
7160;SDS011;3622;53.576;9.978;2023-06-10T05:23:18;213.23;;;64.37;;
7160;SDS011;3622;53.576;9.978;2023-06-10T05:25:44;215.63;;;64.27;;
7160;SDS011;3622;53.576;9.978;2023-06-10T05:28:10;240.67;;;69.50;;
7160;SDS011;3622;53.576;9.978;2023-06-10T05:30:37;237.90;;;70.27;;
7160;SDS011;3622;53.576;9.978;2023-06-10T05:33:03;245.27;;;72.93;;
7160;SDS011;3622;53.576;9.978;2023-06-10T05:35:30;208.07;;;65.40;;
7160;SDS011;3622;53.576;9.978;2023-06-10T05:37:56;187.20;;;59.27;;
7160;SDS011;3622;53.576;9.978;2023-06-10T05:40:22;211.07;;;60.43;;
7160;SDS011;3622;53.576;9.978;2023-06-10T05:42:48;213.60;;;62.77;;
7160;SDS011;3622;53.576;9.978;2023-06-10T05:45:14;206.67;;;62.93;;
7160;SDS011;3622;53.576;9.978;2023-06-10T05:47:40;173.50;;;54.10;;
7160;SDS011;3622;53.576;9.978;2023-06-10T05:50:07;190.47;;;56.23;;
7160;SDS011;3622;53.576;9.978;2023-06-10T05:52:36;181.17;;;56.37;;
7160;SDS011;3622;53.576;9.978;2023-06-10T05:55:05;139.27;;;37.37;;
7160;SDS011;3622;53.576;9.978;2023-06-10T05:57:31;79.87;;;29.70;;
7160;SDS011;3622;53.576;9.978;2023-06-10T05:59:57;112.67;;;31.77;;
7160;SDS011;3622;53.576;9.978;2023-06-10T06:02:23;65.53;;;25.27;;
7160;SDS011;3622;53.576;9.978;2023-06-10T06:04:49;114.77;;;33.40;;
7160;SDS011;3622;53.576;9.978;2023-06-10T06:07:15;74.80;;;27.47;;
7160;SDS011;3622;53.576;9.978;2023-06-10T06:09:41;76.80;;;28.47;;
7160;SDS011;3622;53.576;9.978;2023-06-10T06:12:07;47.83;;;20.17;;
7160;SDS011;3622;53.576;9.978;2023-06-10T06:14:36;17.30;;;10.40;;
7160;SDS011;3622;53.576;9.978;2023-06-10T06:17:02;73.80;;;28.50;;
7160;SDS011;3622;53.576;9.978;2023-06-10T06:19:28;163.10;;;52.17;;
7160;SDS011;3622;53.576;9.978;2023-06-10T06:21:54;219.33;;;65.97;;
7160;SDS011;3622;53.576;9.978;2023-06-10T06:24:20;256.00;;;75.33;;
7160;SDS011;3622;53.576;9.978;2023-06-10T06:26:46;248.53;;;75.87;;
7160;SDS011;3622;53.576;9.978;2023-06-10T06:29:12;226.07;;;73.10;;
7160;SDS011;3622;53.576;9.978;2023-06-10T06:31:38;154.93;;;54.87;;
7160;SDS011;3622;53.576;9.978;2023-06-10T06:34:04;165.13;;;51.60;;
7160;SDS011;3622;53.576;9.978;2023-06-10T06:36:30;223.20;;;70.17;;
7160;SDS011;3622;53.576;9.978;2023-06-10T06:38:56;248.87;;;78.83;;
7160;SDS011;3622;53.576;9.978;2023-06-10T06:41:23;255.83;;;77.93;;
7160;SDS011;3622;53.576;9.978;2023-06-10T06:43:50;252.97;;;77.23;;
7160;SDS011;3622;53.576;9.978;2023-06-10T06:46:16;241.97;;;79.40;;
7160;SDS011;3622;53.576;9.978;2023-06-10T06:48:42;241.00;;;76.53;;
7160;SDS011;3622;53.576;9.978;2023-06-10T06:51:08;253.23;;;80.43;;
7160;SDS011;3622;53.576;9.978;2023-06-10T06:53:34;228.37;;;73.23;;
7160;SDS011;3622;53.576;9.978;2023-06-10T06:56:01;265.70;;;79.57;;
7160;SDS011;3622;53.576;9.978;2023-06-10T06:58:28;260.53;;;79.57;;
7160;SDS011;3622;53.576;9.978;2023-06-10T07:00:54;276.83;;;86.60;;
7160;SDS011;3622;53.576;9.978;2023-06-10T07:03:20;269.57;;;85.83;;
7160;SDS011;3622;53.576;9.978;2023-06-10T07:05:45;283.13;;;92.60;;
7160;SDS011;3622;53.576;9.978;2023-06-10T07:08:12;269.17;;;87.83;;
7160;SDS011;3622;53.576;9.978;2023-06-10T07:10:38;266.50;;;89.30;;
7160;SDS011;3622;53.576;9.978;2023-06-10T07:13:04;289.73;;;95.93;;
7160;SDS011;3622;53.576;9.978;2023-06-10T07:15:30;278.20;;;95.17;;
7160;SDS011;3622;53.576;9.978;2023-06-10T07:17:57;305.30;;;103.67;;
7160;SDS011;3622;53.576;9.978;2023-06-10T07:20:23;296.70;;;107.80;;
7160;SDS011;3622;53.576;9.978;2023-06-10T07:22:49;300.17;;;111.90;;
7160;SDS011;3622;53.576;9.978;2023-06-10T07:25:15;303.97;;;109.90;;
7160;SDS011;3622;53.576;9.978;2023-06-10T07:27:41;300.70;;;111.67;;
7160;SDS011;3622;53.576;9.978;2023-06-10T07:30:07;310.70;;;113.37;;
7160;SDS011;3622;53.576;9.978;2023-06-10T07:32:34;290.47;;;110.77;;
7160;SDS011;3622;53.576;9.978;2023-06-10T07:35:00;312.13;;;113.47;;
7160;SDS011;3622;53.576;9.978;2023-06-10T07:37:26;267.10;;;98.97;;
7160;SDS011;3622;53.576;9.978;2023-06-10T07:39:52;292.17;;;100.10;;
7160;SDS011;3622;53.576;9.978;2023-06-10T07:42:18;281.27;;;98.07;;
7160;SDS011;3622;53.576;9.978;2023-06-10T07:44:44;297.17;;;104.20;;
7160;SDS011;3622;53.576;9.978;2023-06-10T07:47:10;283.90;;;102.30;;
7160;SDS011;3622;53.576;9.978;2023-06-10T07:49:36;264.70;;;95.30;;
7160;SDS011;3622;53.576;9.978;2023-06-10T07:52:02;280.77;;;101.70;;
7160;SDS011;3622;53.576;9.978;2023-06-10T07:54:28;278.07;;;99.77;;
7160;SDS011;3622;53.576;9.978;2023-06-10T07:56:54;277.67;;;102.07;;
7160;SDS011;3622;53.576;9.978;2023-06-10T07:59:20;285.30;;;106.67;;
7160;SDS011;3622;53.576;9.978;2023-06-10T08:01:46;288.23;;;110.53;;
7160;SDS011;3622;53.576;9.978;2023-06-10T08:04:12;280.97;;;104.53;;
7160;SDS011;3622;53.576;9.978;2023-06-10T08:06:38;292.73;;;111.67;;
7160;SDS011;3622;53.576;9.978;2023-06-10T08:09:04;284.67;;;111.03;;
7160;SDS011;3622;53.576;9.978;2023-06-10T08:11:30;306.13;;;114.83;;
7160;SDS011;3622;53.576;9.978;2023-06-10T08:13:56;280.60;;;110.33;;
7160;SDS011;3622;53.576;9.978;2023-06-10T08:16:22;289.73;;;109.77;;
7160;SDS011;3622;53.576;9.978;2023-06-10T08:18:48;305.03;;;112.90;;
7160;SDS011;3622;53.576;9.978;2023-06-10T08:21:15;279.07;;;109.30;;
7160;SDS011;3622;53.576;9.978;2023-06-10T08:23:41;308.90;;;116.70;;
7160;SDS011;3622;53.576;9.978;2023-06-10T08:26:07;284.83;;;114.53;;
7160;SDS011;3622;53.576;9.978;2023-06-10T08:28:33;284.67;;;114.63;;
7160;SDS011;3622;53.576;9.978;2023-06-10T08:30:59;288.33;;;113.47;;
7160;SDS011;3622;53.576;9.978;2023-06-10T08:33:25;291.90;;;116.37;;
7160;SDS011;3622;53.576;9.978;2023-06-10T08:35:51;294.90;;;113.60;;
7160;SDS011;3622;53.576;9.978;2023-06-10T08:38:17;273.57;;;109.73;;
7160;SDS011;3622;53.576;9.978;2023-06-10T08:40:43;281.33;;;114.53;;
7160;SDS011;3622;53.576;9.978;2023-06-10T08:43:22;279.27;;;112.47;;
7160;SDS011;3622;53.576;9.978;2023-06-10T08:45:52;296.80;;;110.53;;
7160;SDS011;3622;53.576;9.978;2023-06-10T08:48:21;291.30;;;111.67;;
7160;SDS011;3622;53.576;9.978;2023-06-10T08:50:47;272.47;;;106.30;;
7160;SDS011;3622;53.576;9.978;2023-06-10T08:53:13;302.33;;;112.70;;
7160;SDS011;3622;53.576;9.978;2023-06-10T08:55:44;274.23;;;103.83;;
7160;SDS011;3622;53.576;9.978;2023-06-10T08:58:12;275.47;;;104.03;;
7160;SDS011;3622;53.576;9.978;2023-06-10T09:00:38;296.20;;;107.13;;
7160;SDS011;3622;53.576;9.978;2023-06-10T09:03:04;267.23;;;97.67;;
7160;SDS011;3622;53.576;9.978;2023-06-10T09:05:34;271.87;;;100.13;;
7160;SDS011;3622;53.576;9.978;2023-06-10T09:08:01;260.37;;;97.60;;
7160;SDS011;3622;53.576;9.978;2023-06-10T09:10:27;258.97;;;95.17;;
7160;SDS011;3622;53.576;9.978;2023-06-10T09:12:53;253.70;;;95.47;;
7160;SDS011;3622;53.576;9.978;2023-06-10T09:15:20;262.57;;;99.33;;
7160;SDS011;3622;53.576;9.978;2023-06-10T09:17:46;278.27;;;101.27;;
7160;SDS011;3622;53.576;9.978;2023-06-10T09:20:12;266.27;;;98.30;;
7160;SDS011;3622;53.576;9.978;2023-06-10T09:22:38;268.27;;;96.27;;
7160;SDS011;3622;53.576;9.978;2023-06-10T09:25:05;240.40;;;90.57;;
7160;SDS011;3622;53.576;9.978;2023-06-10T09:27:33;247.47;;;93.27;;
7160;SDS011;3622;53.576;9.978;2023-06-10T09:30:09;227.60;;;81.17;;
7160;SDS011;3622;53.576;9.978;2023-06-10T09:32:38;239.07;;;86.43;;
7160;SDS011;3622;53.576;9.978;2023-06-10T09:35:09;205.80;;;77.63;;
7160;SDS011;3622;53.576;9.978;2023-06-10T09:37:35;165.83;;;63.20;;
7160;SDS011;3622;53.576;9.978;2023-06-10T09:40:07;213.93;;;80.20;;
7160;SDS011;3622;53.576;9.978;2023-06-10T09:42:35;156.57;;;64.00;;
7160;SDS011;3622;53.576;9.978;2023-06-10T09:45:05;144.00;;;49.20;;
7160;SDS011;3622;53.576;9.978;2023-06-10T09:47:31;167.17;;;64.23;;
7160;SDS011;3622;53.576;9.978;2023-06-10T09:49:57;182.87;;;71.20;;
7160;SDS011;3622;53.576;9.978;2023-06-10T09:52:23;217.83;;;77.77;;
7160;SDS011;3622;53.576;9.978;2023-06-10T09:54:50;300.03;;;103.10;;
7160;SDS011;3622;53.576;9.978;2023-06-10T09:57:17;248.20;;;91.10;;
7160;SDS011;3622;53.576;9.978;2023-06-10T09:59:43;273.70;;;102.20;;
7160;SDS011;3622;53.576;9.978;2023-06-10T10:02:16;257.40;;;97.00;;
7160;SDS011;3622;53.576;9.978;2023-06-10T10:04:43;305.33;;;124.17;;
7160;SDS011;3622;53.576;9.978;2023-06-10T10:07:10;241.73;;;93.30;;
7160;SDS011;3622;53.576;9.978;2023-06-10T10:09:36;198.33;;;78.17;;
7160;SDS011;3622;53.576;9.978;2023-06-10T10:12:03;185.03;;;76.90;;
7160;SDS011;3622;53.576;9.978;2023-06-10T10:14:30;201.97;;;75.00;;
7160;SDS011;3622;53.576;9.978;2023-06-10T10:16:57;178.10;;;69.73;;
7160;SDS011;3622;53.576;9.978;2023-06-10T10:19:28;180.13;;;70.10;;
7160;SDS011;3622;53.576;9.978;2023-06-10T10:22:00;204.00;;;78.83;;
7160;SDS011;3622;53.576;9.978;2023-06-10T10:24:31;203.10;;;78.83;;
7160;SDS011;3622;53.576;9.978;2023-06-10T10:26:59;158.87;;;66.47;;
7160;SDS011;3622;53.576;9.978;2023-06-10T10:29:34;159.67;;;64.57;;
7160;SDS011;3622;53.576;9.978;2023-06-10T10:32:02;135.80;;;47.17;;
7160;SDS011;3622;53.576;9.978;2023-06-10T10:34:36;164.53;;;46.63;;
7160;SDS011;3622;53.576;9.978;2023-06-10T10:37:03;141.13;;;46.90;;
7160;SDS011;3622;53.576;9.978;2023-06-10T10:39:29;115.87;;;44.37;;
7160;SDS011;3622;53.576;9.978;2023-06-10T10:41:56;115.33;;;43.60;;
7160;SDS011;3622;53.576;9.978;2023-06-10T10:44:22;62.03;;;32.97;;
7160;SDS011;3622;53.576;9.978;2023-06-10T10:46:50;40.13;;;17.03;;
7160;SDS011;3622;53.576;9.978;2023-06-10T10:49:17;23.13;;;8.53;;
7160;SDS011;3622;53.576;9.978;2023-06-10T10:51:59;16.00;;;6.30;;
7160;SDS011;3622;53.576;9.978;2023-06-10T10:54:29;8.67;;;4.50;;
7160;SDS011;3622;53.576;9.978;2023-06-10T11:02:09;12.57;;;4.70;;
7160;SDS011;3622;53.576;9.978;2023-06-10T11:04:35;11.00;;;5.17;;
7160;SDS011;3622;53.576;9.978;2023-06-10T11:07:07;12.20;;;6.30;;
7160;SDS011;3622;53.576;9.978;2023-06-10T11:09:33;7.87;;;4.30;;
7160;SDS011;3622;53.576;9.978;2023-06-10T11:11:59;23.30;;;7.03;;
7160;SDS011;3622;53.576;9.978;2023-06-10T11:14:29;14.97;;;5.77;;
7160;SDS011;3622;53.576;9.978;2023-06-10T11:16:58;17.30;;;6.10;;
7160;SDS011;3622;53.576;9.978;2023-06-10T11:19:45;11.30;;;4.43;;
7160;SDS011;3622;53.576;9.978;2023-06-10T11:22:15;10.50;;;4.43;;
7160;SDS011;3622;53.576;9.978;2023-06-10T11:24:42;20.13;;;6.13;;
7160;SDS011;3622;53.576;9.978;2023-06-10T11:32:29;9.67;;;5.27;;
7160;SDS011;3622;53.576;9.978;2023-06-10T11:34:56;10.17;;;5.00;;
7160;SDS011;3622;53.576;9.978;2023-06-10T11:37:22;10.70;;;4.60;;
7160;SDS011;3622;53.576;9.978;2023-06-10T11:39:55;8.40;;;4.93;;
7160;SDS011;3622;53.576;9.978;2023-06-10T11:42:24;6.07;;;4.10;;
7160;SDS011;3622;53.576;9.978;2023-06-10T11:44:50;8.07;;;4.80;;
7160;SDS011;3622;53.576;9.978;2023-06-10T11:47:17;7.30;;;5.17;;
7160;SDS011;3622;53.576;9.978;2023-06-10T11:49:43;20.67;;;6.20;;
7160;SDS011;3622;53.576;9.978;2023-06-10T11:52:09;10.93;;;5.90;;
7160;SDS011;3622;53.576;9.978;2023-06-10T11:54:35;12.23;;;5.50;;
7160;SDS011;3622;53.576;9.978;2023-06-10T11:57:02;13.17;;;5.73;;
7160;SDS011;3622;53.576;9.978;2023-06-10T11:59:28;14.07;;;5.60;;
7160;SDS011;3622;53.576;9.978;2023-06-10T12:01:54;13.13;;;5.87;;
7160;SDS011;3622;53.576;9.978;2023-06-10T12:04:21;21.47;;;6.57;;
7160;SDS011;3622;53.576;9.978;2023-06-10T12:06:49;12.77;;;5.80;;
7160;SDS011;3622;53.576;9.978;2023-06-10T12:09:22;12.27;;;6.20;;
7160;SDS011;3622;53.576;9.978;2023-06-10T12:11:49;14.27;;;6.17;;
7160;SDS011;3622;53.576;9.978;2023-06-10T12:14:16;15.87;;;6.17;;
7160;SDS011;3622;53.576;9.978;2023-06-10T12:16:48;9.23;;;5.87;;
7160;SDS011;3622;53.576;9.978;2023-06-10T12:19:14;12.37;;;5.90;;
7160;SDS011;3622;53.576;9.978;2023-06-10T12:21:40;11.10;;;5.90;;
7160;SDS011;3622;53.576;9.978;2023-06-10T12:24:08;13.80;;;6.57;;
7160;SDS011;3622;53.576;9.978;2023-06-10T12:26:41;13.47;;;6.63;;
7160;SDS011;3622;53.576;9.978;2023-06-10T12:29:19;11.50;;;6.63;;
7160;SDS011;3622;53.576;9.978;2023-06-10T12:32:19;16.70;;;6.77;;
7160;SDS011;3622;53.576;9.978;2023-06-10T12:34:40;19.60;;;6.80;;
7160;SDS011;3622;53.576;9.978;2023-06-10T12:37:09;12.00;;;5.67;;
7160;SDS011;3622;53.576;9.978;2023-06-10T12:39:38;12.03;;;6.23;;
7160;SDS011;3622;53.576;9.978;2023-06-10T12:42:04;12.60;;;7.07;;
7160;SDS011;3622;53.576;9.978;2023-06-10T12:44:34;17.77;;;6.87;;
7160;SDS011;3622;53.576;9.978;2023-06-10T12:47:01;22.87;;;7.50;;
7160;SDS011;3622;53.576;9.978;2023-06-10T12:49:33;11.63;;;6.23;;
7160;SDS011;3622;53.576;9.978;2023-06-10T12:52:00;19.20;;;6.63;;
7160;SDS011;3622;53.576;9.978;2023-06-10T12:54:26;8.27;;;6.40;;
7160;SDS011;3622;53.576;9.978;2023-06-10T12:56:52;10.37;;;6.43;;
7160;SDS011;3622;53.576;9.978;2023-06-10T12:59:18;14.83;;;7.03;;
7160;SDS011;3622;53.576;9.978;2023-06-10T13:01:44;15.23;;;6.80;;
7160;SDS011;3622;53.576;9.978;2023-06-10T13:04:16;12.70;;;6.63;;
7160;SDS011;3622;53.576;9.978;2023-06-10T13:06:43;13.70;;;6.87;;
7160;SDS011;3622;53.576;9.978;2023-06-10T13:09:09;13.53;;;5.80;;
7160;SDS011;3622;53.576;9.978;2023-06-10T13:11:35;12.37;;;5.93;;
7160;SDS011;3622;53.576;9.978;2023-06-10T13:14:02;14.70;;;6.90;;
7160;SDS011;3622;53.576;9.978;2023-06-10T13:16:29;18.60;;;6.60;;
7160;SDS011;3622;53.576;9.978;2023-06-10T13:18:55;10.50;;;5.70;;
7160;SDS011;3622;53.576;9.978;2023-06-10T13:21:21;16.97;;;5.80;;
7160;SDS011;3622;53.576;9.978;2023-06-10T13:23:47;12.63;;;6.20;;
7160;SDS011;3622;53.576;9.978;2023-06-10T13:26:13;12.50;;;6.03;;
7160;SDS011;3622;53.576;9.978;2023-06-10T13:28:41;9.20;;;5.90;;
7160;SDS011;3622;53.576;9.978;2023-06-10T13:31:07;8.57;;;5.30;;
7160;SDS011;3622;53.576;9.978;2023-06-10T13:33:33;17.87;;;6.20;;
7160;SDS011;3622;53.576;9.978;2023-06-10T13:35:59;13.47;;;6.30;;
7160;SDS011;3622;53.576;9.978;2023-06-10T13:38:25;13.03;;;5.07;;
7160;SDS011;3622;53.576;9.978;2023-06-10T13:40:50;11.53;;;4.97;;
7160;SDS011;3622;53.576;9.978;2023-06-10T13:43:16;10.70;;;5.30;;
7160;SDS011;3622;53.576;9.978;2023-06-10T13:45:42;7.97;;;5.10;;
7160;SDS011;3622;53.576;9.978;2023-06-10T13:48:08;10.17;;;5.57;;
7160;SDS011;3622;53.576;9.978;2023-06-10T13:50:34;12.87;;;5.37;;
7160;SDS011;3622;53.576;9.978;2023-06-10T13:53:00;10.53;;;5.43;;
7160;SDS011;3622;53.576;9.978;2023-06-10T13:55:26;22.20;;;5.60;;
7160;SDS011;3622;53.576;9.978;2023-06-10T13:57:52;13.23;;;5.00;;
7160;SDS011;3622;53.576;9.978;2023-06-10T14:00:18;11.53;;;4.77;;
7160;SDS011;3622;53.576;9.978;2023-06-10T14:02:44;16.53;;;5.47;;
7160;SDS011;3622;53.576;9.978;2023-06-10T14:05:11;14.20;;;5.67;;
7160;SDS011;3622;53.576;9.978;2023-06-10T14:07:37;13.90;;;4.40;;
7160;SDS011;3622;53.576;9.978;2023-06-10T14:10:04;12.00;;;4.50;;
7160;SDS011;3622;53.576;9.978;2023-06-10T14:12:30;15.30;;;4.97;;
7160;SDS011;3622;53.576;9.978;2023-06-10T14:14:56;9.00;;;4.30;;
7160;SDS011;3622;53.576;9.978;2023-06-10T14:17:22;12.00;;;4.80;;
7160;SDS011;3622;53.576;9.978;2023-06-10T14:19:48;16.57;;;4.53;;
7160;SDS011;3622;53.576;9.978;2023-06-10T14:22:15;8.67;;;4.23;;
7160;SDS011;3622;53.576;9.978;2023-06-10T14:24:41;19.87;;;6.10;;
7160;SDS011;3622;53.576;9.978;2023-06-10T14:27:07;11.47;;;4.63;;
7160;SDS011;3622;53.576;9.978;2023-06-10T14:29:33;24.03;;;6.07;;
7160;SDS011;3622;53.576;9.978;2023-06-10T14:32:00;15.70;;;5.43;;
7160;SDS011;3622;53.576;9.978;2023-06-10T14:34:26;19.07;;;5.10;;
7160;SDS011;3622;53.576;9.978;2023-06-10T14:36:54;11.03;;;4.80;;
7160;SDS011;3622;53.576;9.978;2023-06-10T14:39:20;9.73;;;3.97;;
7160;SDS011;3622;53.576;9.978;2023-06-10T14:41:46;10.47;;;4.30;;
7160;SDS011;3622;53.576;9.978;2023-06-10T14:44:12;21.60;;;5.00;;
7160;SDS011;3622;53.576;9.978;2023-06-10T14:46:38;12.17;;;5.60;;
7160;SDS011;3622;53.576;9.978;2023-06-10T14:49:04;13.87;;;5.00;;
7160;SDS011;3622;53.576;9.978;2023-06-10T14:51:30;15.60;;;4.40;;
7160;SDS011;3622;53.576;9.978;2023-06-10T14:53:56;14.17;;;4.37;;
7160;SDS011;3622;53.576;9.978;2023-06-10T14:56:23;11.03;;;4.20;;
7160;SDS011;3622;53.576;9.978;2023-06-10T14:58:50;12.13;;;4.30;;
7160;SDS011;3622;53.576;9.978;2023-06-10T15:01:16;9.97;;;4.30;;
7160;SDS011;3622;53.576;9.978;2023-06-10T15:03:43;12.03;;;4.73;;
7160;SDS011;3622;53.576;9.978;2023-06-10T15:06:09;18.13;;;5.37;;